Time;durP1;ratioP1;P1;durP2;ratioP2;P2;SDS_P1;SDS_P2;PMS_P1;PMS_P2;Temp;Humidity;BMP_temperature;BMP_pressure;BME280_temperature;BME280_humidity;BME280_pressure;Samples;Min_cycle;Max_cycle;Signal;HPM_P1;HPM_P2
2023/12/08 00:00:26;;;;;;;;;;;;;;;9.99;81.57;98741.22;7354018;19;19922;-60
2023/12/08 00:02:52;;;;;;;;;;;;;;;9.99;81.47;98738.59;7351119;19;20010;-61
2023/12/08 00:05:18;;;;;;;;;;;;;;;10.01;81.11;98736.75;7359546;19;19926;-60
2023/12/08 00:07:43;;;;;;;;;;;;;;;10.02;81.08;98742.78;7365215;19;19915;-61
2023/12/08 00:10:09;;;;;;;;;;;;;;;10.01;81.22;98752.38;7374418;19;19918;-60
2023/12/08 00:12:34;;;;;;;;;;;;;;;10.03;81.21;98747.91;7368053;19;19907;-61
2023/12/08 00:14:59;;;;;;;;;;;;;;;10.04;81.63;98741.81;7366446;19;19948;-61
2023/12/08 00:17:26;;;;;;;;;;;;;;;10.06;81.46;98750.38;7363944;19;19911;-59
2023/12/08 00:19:53;;;;;;;;;;;;;;;10.08;81.52;98747.69;7368509;19;19930;-61
2023/12/08 00:22:18;;;;;;;;;;;;;;;10.08;81.64;98740.69;7364205;19;19922;-60
2023/12/08 00:24:43;;;;;;;;;;;;;;;10.10;81.56;98743.25;7366067;19;19918;-61
2023/12/08 00:27:08;;;;;;;;;;;;;;;10.10;81.60;98744.09;7359922;19;19911;-61
2023/12/08 00:29:34;;;;;;;;;;;;;;;10.11;81.45;98737.94;7368319;19;19934;-60
2023/12/08 00:31:59;;;;;;;;;;;;;;;10.12;81.15;98742.22;7367004;19;20791;-61
2023/12/08 00:34:24;;;;;;;;;;;;;;;10.13;81.33;98749.13;7360786;19;19927;-61
2023/12/08 00:36:50;;;;;;;;;;;;;;;10.12;81.26;98744.84;7371344;19;19948;-59
2023/12/08 00:39:15;;;;;;;;;;;;;;;10.12;81.29;98750.06;7365249;19;19931;-60
2023/12/08 00:41:40;;;;;;;;;;;;;;;10.12;80.94;98750.06;7368532;19;19931;-61
2023/12/08 00:44:08;;;;;;;;;;;;;;;10.10;81.23;98751.91;7361578;19;19915;-60
2023/12/08 00:46:33;;;;;;;;;;;;;;;10.09;80.89;98755.44;7361576;19;20754;-60
2023/12/08 00:48:59;;;;;;;;;;;;;;;10.08;80.96;98747.69;7348930;19;19926;-62
2023/12/08 00:51:24;;;;;;;;;;;;;;;10.06;80.82;98750.38;7368624;19;20526;-60
2023/12/08 00:53:49;;;;;;;;;;;;;;;10.06;81.04;98742.56;7364061;19;19919;-60
2023/12/08 00:56:14;;;;;;;;;;;;;;;10.06;80.98;98742.56;7367698;19;19922;-59
2023/12/08 00:58:40;;;;;;;;;;;;;;;10.07;81.35;98746.00;7357758;19;19930;-60
2023/12/08 01:01:05;;;;;;;;;;;;;;;10.06;80.95;98742.56;7368299;19;19970;-61
2023/12/08 01:03:30;;;;;;;;;;;;;;;10.06;81.26;98745.16;7361014;19;19921;-61
2023/12/08 01:05:56;;;;;;;;;;;;;;;10.06;81.25;98754.75;7369444;19;20343;-61
2023/12/08 01:08:22;;;;;;;;;;;;;;;10.05;81.07;98740.88;7370541;19;19919;-61
2023/12/08 01:10:47;;;;;;;;;;;;;;;10.05;81.01;98735.66;7365844;19;19921;-61
2023/12/08 01:13:12;;;;;;;;;;;;;;;10.05;80.95;98727.84;7366619;19;20660;-60
2023/12/08 01:15:37;;;;;;;;;;;;;;;10.04;81.21;98731.38;7362677;19;19911;-61
2023/12/08 01:18:02;;;;;;;;;;;;;;;10.05;81.30;98727.84;7367294;19;19946;-61
2023/12/08 01:20:28;;;;;;;;;;;;;;;10.07;81.08;98727.75;7363813;19;19943;-59
2023/12/08 01:22:53;;;;;;;;;;;;;;;10.07;81.53;98730.34;7365089;19;19915;-59
2023/12/08 01:25:19;;;;;;;;;;;;;;;10.07;81.08;98731.19;7364051;19;19919;-61
2023/12/08 01:27:44;;;;;;;;;;;;;;;10.08;81.03;98722.44;7363995;19;19918;-60
2023/12/08 01:30:10;;;;;;;;;;;;;;;10.08;81.39;98745.91;7363753;19;19918;-61
2023/12/08 01:32:35;;;;;;;;;;;;;;;10.09;80.94;98725.94;7363684;19;19932;-60
2023/12/08 01:35:00;;;;;;;;;;;;;;;10.09;81.06;98723.31;7366366;19;19919;-60
2023/12/08 01:37:25;;;;;;;;;;;;;;;10.10;81.38;98725.00;7363861;19;20613;-61
2023/12/08 01:39:50;;;;;;;;;;;;;;;10.09;81.04;98725.94;7366782;19;19914;-58
2023/12/08 01:42:16;;;;;;;;;;;;;;;10.09;81.38;98724.16;7359662;19;19945;-60
2023/12/08 01:44:41;;;;;;;;;;;;;;;10.10;81.08;98725.00;7366887;19;19926;-60
2023/12/08 01:47:06;;;;;;;;;;;;;;;10.08;81.28;98714.63;7365436;19;20337;-61
2023/12/08 01:49:32;;;;;;;;;;;;;;;10.07;80.81;98715.56;7358892;19;19915;-61
2023/12/08 01:51:58;;;;;;;;;;;;;;;10.07;81.07;98720.78;7371498;19;19923;-61
2023/12/08 01:54:23;;;;;;;;;;;;;;;10.08;80.99;98719.84;7366610;19;19918;-61
2023/12/08 01:56:48;;;;;;;;;;;;;;;10.06;80.80;98716.47;7365053;19;19926;-61
2023/12/08 01:59:14;;;;;;;;;;;;;;;10.07;81.07;98719.94;7361547;19;19922;-60
2023/12/08 02:01:39;;;;;;;;;;;;;;;10.06;81.15;98728.69;7367781;19;19955;-61
2023/12/08 02:04:05;;;;;;;;;;;;;;;10.06;80.88;98728.69;7374048;19;19960;-60
2023/12/08 02:06:30;;;;;;;;;;;;;;;10.05;80.85;98738.28;7365350;19;20262;-61
2023/12/08 02:08:56;;;;;;;;;;;;;;;10.04;81.06;98726.16;7356120;19;20354;-61
2023/12/08 02:11:21;;;;;;;;;;;;;;;10.04;80.89;98735.75;7365204;19;19922;-61
2023/12/08 02:13:46;;;;;;;;;;;;;;;10.05;80.78;98740.88;7364586;19;19922;-60
2023/12/08 02:16:19;;;;;;;;;;;;;;;10.05;81.04;98740.88;7364996;19;20564;-61
2023/12/08 02:18:45;;;;;;;;;;;;;;;10.05;81.17;98733.06;7362855;19;19915;-61
2023/12/08 02:21:11;;;;;;;;;;;;;;;10.05;80.77;98738.28;7367599;19;19917;-61
2023/12/08 02:23:36;;;;;;;;;;;;;;;10.05;81.10;98735.66;7366224;19;19918;-61
2023/12/08 02:26:02;;;;;;;;;;;;;;;10.06;81.16;98739.94;7350942;19;20731;-61
2023/12/08 02:28:28;;;;;;;;;;;;;;;10.05;81.12;98748.69;7363424;19;20243;-60
2023/12/08 02:30:54;;;;;;;;;;;;;;;10.07;80.84;98744.25;7364734;19;19925;-61
2023/12/08 02:33:23;;;;;;;;;;;;;;;10.07;81.11;98743.41;7359168;19;19925;-61
2023/12/08 02:35:49;;;;;;;;;;;;;;;10.09;80.90;98744.19;7373584;19;20014;-60
2023/12/08 02:38:17;;;;;;;;;;;;;;;10.09;81.13;98750.22;7371622;19;19989;-61
2023/12/08 02:40:42;;;;;;;;;;;;;;;10.11;80.86;98748.38;7366514;19;19922;-59
2023/12/08 02:43:07;;;;;;;;;;;;;;;10.13;81.15;98762.16;7365100;19;19923;-60
2023/12/08 02:45:32;;;;;;;;;;;;;;;10.13;81.27;98756.94;7364394;19;20001;-61
2023/12/08 02:47:58;;;;;;;;;;;;;;;10.18;80.94;98758.47;7363841;19;20388;-60
2023/12/08 02:50:23;;;;;;;;;;;;;;;10.20;81.09;98778.38;7361740;19;19923;-61
2023/12/08 02:52:48;;;;;;;;;;;;;;;10.22;80.86;98760.00;7363444;19;19950;-60
2023/12/08 02:55:14;;;;;;;;;;;;;;;10.24;80.77;98768.63;7366648;19;20270;-60
2023/12/08 02:57:39;;;;;;;;;;;;;;;10.24;80.50;98752.97;7360620;19;19927;-61
2023/12/08 03:00:05;;;;;;;;;;;;;;;10.25;80.77;98759.91;7363344;19;19957;-61
2023/12/08 03:02:30;;;;;;;;;;;;;;;10.25;80.46;98760.75;7364716;19;19954;-61
2023/12/08 03:04:55;;;;;;;;;;;;;;;10.25;80.46;98765.97;7362693;19;19979;-61
2023/12/08 03:07:20;;;;;;;;;;;;;;;10.25;80.37;98760.75;7365773;19;20278;-61
2023/12/08 03:09:46;;;;;;;;;;;;;;;10.27;80.31;98778.91;7359668;19;19946;-61
2023/12/08 03:12:11;;;;;;;;;;;;;;;10.26;80.68;98774.63;7360408;19;20024;-61
2023/12/08 03:14:36;;;;;;;;;;;;;;;10.27;80.57;98779.75;7361011;19;19978;-60
2023/12/08 03:17:01;;;;;;;;;;;;;;;10.28;80.28;98775.38;7360976;19;19930;-60
2023/12/08 03:19:27;;;;;;;;;;;;;;;10.28;80.22;98780.59;7359176;19;20605;-61
2023/12/08 03:21:52;;;;;;;;;;;;;;;10.26;80.49;98778.06;7361404;19;19911;-61
2023/12/08 03:24:17;;;;;;;;;;;;;;;10.28;80.41;98772.75;7358266;19;20413;-60
2023/12/08 03:26:43;;;;;;;;;;;;;;;10.28;80.10;98767.53;7362175;19;19922;-61
2023/12/08 03:29:08;;;;;;;;;;;;;;;10.28;80.47;98777.97;7361787;19;19945;-61
2023/12/08 03:31:33;;;;;;;;;;;;;;;10.27;80.52;98776.31;7363522;19;19927;-61
2023/12/08 03:33:59;;;;;;;;;;;;;;;10.29;80.23;98777.06;7365930;19;20002;-60
2023/12/08 03:36:24;;;;;;;;;;;;;;;10.28;80.21;98771.00;7371074;19;19914;-59
2023/12/08 03:38:50;;;;;;;;;;;;;;;10.29;80.49;98783.13;7368375;19;20283;-60
2023/12/08 03:41:15;;;;;;;;;;;;;;;10.29;80.49;98771.84;7370150;19;19926;-60
2023/12/08 03:43:40;;;;;;;;;;;;;;;10.31;80.31;98790.88;7367760;19;19938;-58
2023/12/08 03:46:06;;;;;;;;;;;;;;;10.33;80.13;98781.19;7367443;19;20243;-61
2023/12/08 03:48:32;;;;;;;;;;;;;;;10.33;80.17;98791.63;7367773;19;19922;-61
2023/12/08 03:50:57;;;;;;;;;;;;;;;10.35;80.42;98784.59;7365411;19;19992;-59
2023/12/08 03:53:23;;;;;;;;;;;;;;;10.34;80.08;98798.53;7378622;19;19915;-61
2023/12/08 03:55:48;;;;;;;;;;;;;;;10.38;80.24;98797.44;7371172;19;20269;-60
2023/12/08 03:58:13;;;;;;;;;;;;;;;10.37;80.09;98782.72;7369296;19;19922;-61
2023/12/08 04:00:39;;;;;;;;;;;;;;;10.38;79.99;98781.78;7366674;19;19932;-60
2023/12/08 04:03:04;;;;;;;;;;;;;;;10.38;80.32;98777.41;7369323;19;20030;-61
2023/12/08 04:05:29;;;;;;;;;;;;;;;10.39;79.94;98778.25;7362142;19;19994;-61
2023/12/08 04:07:54;;;;;;;;;;;;;;;10.41;80.20;98781.66;7367231;19;20473;-62
2023/12/08 04:10:20;;;;;;;;;;;;;;;10.41;79.99;98781.66;7365763;19;20381;-60
2023/12/08 04:12:45;;;;;;;;;;;;;;;10.41;80.12;98791.25;7362844;19;19917;-61
2023/12/08 04:15:10;;;;;;;;;;;;;;;10.42;79.90;98772.88;7366667;19;19924;-58
2023/12/08 04:17:35;;;;;;;;;;;;;;;10.42;79.97;98767.66;7337078;19;19914;-61
2023/12/08 04:20:01;;;;;;;;;;;;;;;10.44;80.05;98776.28;7373764;19;19931;-60
2023/12/08 04:22:26;;;;;;;;;;;;;;;10.44;79.67;98768.44;7369170;19;20355;-61
2023/12/08 04:24:52;;;;;;;;;;;;;;;10.44;79.78;98776.28;7358735;19;19915;-60
2023/12/08 04:27:17;;;;;;;;;;;;;;;10.45;79.47;98775.34;7362592;19;19915;-61
2023/12/08 04:29:42;;;;;;;;;;;;;;;10.47;79.83;98770.88;7371546;19;19925;-61
2023/12/08 04:32:08;;;;;;;;;;;;;;;10.47;79.76;98781.31;7368574;19;19936;-61
2023/12/08 04:34:33;;;;;;;;;;;;;;;10.47;79.77;98781.31;7368452;19;19921;-60
2023/12/08 04:36:58;;;;;;;;;;;;;;;10.48;79.40;98788.22;7371037;19;19928;-61
2023/12/08 04:39:23;;;;;;;;;;;;;;;10.50;79.43;98777.72;7366508;19;19994;-61
2023/12/08 04:41:49;;;;;;;;;;;;;;;10.51;79.41;98793.28;7358475;19;19922;-60
2023/12/08 04:44:14;;;;;;;;;;;;;;;10.53;79.31;98787.97;7355102;19;20019;-60
2023/12/08 04:46:39;;;;;;;;;;;;;;;10.52;79.46;98792.34;7366675;19;19915;-61
2023/12/08 04:49:05;;;;;;;;;;;;;;;10.53;79.44;98795.81;7358428;19;19925;-60
2023/12/08 04:51:30;;;;;;;;;;;;;;;10.53;79.09;98796.66;7369447;19;20293;-59
2023/12/08 04:53:55;;;;;;;;;;;;;;;10.53;79.35;98796.66;7366263;19;19919;-61
2023/12/08 04:56:20;;;;;;;;;;;;;;;10.53;79.09;98791.41;7365031;19;19982;-61
2023/12/08 04:58:47;;;;;;;;;;;;;;;10.54;79.25;98793.13;7355826;19;20327;-60
2023/12/08 05:01:14;;;;;;;;;;;;;;;10.53;79.32;98783.59;7374777;19;19951;-60
2023/12/08 05:03:39;;;;;;;;;;;;;;;10.53;79.33;98807.09;7365487;19;20355;-60
2023/12/08 05:06:05;;;;;;;;;;;;;;;10.53;79.21;98791.41;7368520;19;19955;-60
2023/12/08 05:08:30;;;;;;;;;;;;;;;10.53;78.95;98786.22;7363774;19;19918;-61
2023/12/08 05:10:55;;;;;;;;;;;;;;;10.52;78.73;98789.75;7365124;19;19924;-61
2023/12/08 05:13:20;;;;;;;;;;;;;;;10.50;79.14;98820.31;7367509;19;19936;-60
2023/12/08 05:15:46;;;;;;;;;;;;;;;10.50;79.04;98802.03;7368147;19;19923;-60
2023/12/08 05:18:11;;;;;;;;;;;;;;;10.50;78.59;98802.03;7362194;19;19915;-59
2023/12/08 05:20:36;;;;;;;;;;;;;;;10.49;78.99;98810.81;7365179;19;19907;-60
2023/12/08 05:23:02;;;;;;;;;;;;;;;10.49;78.81;98809.94;7369734;19;20277;-61
2023/12/08 05:25:27;;;;;;;;;;;;;;;10.47;79.13;98807.41;7363125;19;19926;-61
2023/12/08 05:27:52;;;;;;;;;;;;;;;10.48;78.98;98803.03;7365254;19;19918;-61
2023/12/08 05:30:17;;;;;;;;;;;;;;;10.48;79.00;98813.47;7366318;19;19914;-60
2023/12/08 05:32:43;;;;;;;;;;;;;;;10.46;78.68;98807.50;7372951;19;19919;-59
2023/12/08 05:35:08;;;;;;;;;;;;;;;10.45;78.99;98804.06;7365719;19;20378;-61
2023/12/08 05:37:33;;;;;;;;;;;;;;;10.45;78.91;98811.88;7363214;19;19918;-60
2023/12/08 05:39:59;;;;;;;;;;;;;;;10.45;78.83;98814.50;7365301;19;20271;-58
2023/12/08 05:42:24;;;;;;;;;;;;;;;10.44;78.82;98802.38;7368674;19;19935;-60
2023/12/08 05:44:49;;;;;;;;;;;;;;;10.43;78.93;98803.28;7372008;19;19922;-61
2023/12/08 05:47:14;;;;;;;;;;;;;;;10.43;79.10;98810.25;7361858;19;19918;-61
2023/12/08 05:49:40;;;;;;;;;;;;;;;10.42;79.28;98793.75;7362767;19;20331;-61
2023/12/08 05:52:05;;;;;;;;;;;;;;;10.43;78.82;98807.66;7365961;19;20291;-60
2023/12/08 05:54:30;;;;;;;;;;;;;;;10.43;78.94;98811.09;7365374;19;19911;-61
2023/12/08 05:56:58;;;;;;;;;;;;;;;10.44;79.05;98810.19;7368446;19;19918;-60
2023/12/08 05:59:23;;;;;;;;;;;;;;;10.48;79.03;98789.97;7366818;19;19922;-60
2023/12/08 06:01:48;;;;;;;;;;;;;;;10.49;79.50;98791.66;7355974;19;19918;-60
2023/12/08 06:04:14;;;;;;;;;;;;;;;10.52;79.17;98794.97;7362011;19;19926;-59
2023/12/08 06:06:39;;;;;;;;;;;;;;;10.54;79.15;98793.13;7366967;19;19929;-60
2023/12/08 06:09:04;;;;;;;;;;;;;;;10.58;79.44;98793.78;7358993;19;19915;-61
2023/12/08 06:11:29;;;;;;;;;;;;;;;10.58;79.23;98799.84;7365083;19;19918;-61
2023/12/08 06:13:55;;;;;;;;;;;;;;;10.60;79.26;98792.81;7353804;19;19919;-60
2023/12/08 06:16:20;;;;;;;;;;;;;;;10.62;79.39;98804.00;7367662;19;20320;-61
2023/12/08 06:18:45;;;;;;;;;;;;;;;10.64;78.98;98804.78;7359171;19;19919;-60
2023/12/08 06:21:11;;;;;;;;;;;;;;;10.65;78.91;98801.22;7365823;19;19926;-61
2023/12/08 06:23:36;;;;;;;;;;;;;;;10.66;79.00;98802.06;7367210;19;19930;-60
2023/12/08 06:26:02;;;;;;;;;;;;;;;10.68;78.85;98804.59;7362835;19;20331;-61
2023/12/08 06:28:28;;;;;;;;;;;;;;;10.68;78.89;98813.25;7364997;19;19960;-60
2023/12/08 06:30:53;;;;;;;;;;;;;;;10.68;79.05;98809.81;7374280;19;19974;-60
2023/12/08 06:33:18;;;;;;;;;;;;;;;10.69;79.15;98803.66;7364704;19;19929;-61
2023/12/08 06:35:43;;;;;;;;;;;;;;;10.69;78.97;98817.56;7362975;19;19918;-60
2023/12/08 06:38:10;;;;;;;;;;;;;;;10.69;78.68;98801.88;7365333;19;19939;-61
2023/12/08 06:40:35;;;;;;;;;;;;;;;10.68;78.82;98815.03;7364092;19;19919;-61
2023/12/08 06:43:00;;;;;;;;;;;;;;;10.67;78.75;98813.34;7364802;19;19942;-59
2023/12/08 06:45:25;;;;;;;;;;;;;;;10.66;78.59;98817.72;7358542;19;19922;-61
2023/12/08 06:47:51;;;;;;;;;;;;;;;10.57;78.85;98813.84;7358859;19;19919;-60
2023/12/08 06:50:16;;;;;;;;;;;;;;;10.66;78.73;98817.72;7357496;19;19910;-60
2023/12/08 06:52:42;;;;;;;;;;;;;;;10.64;78.59;98815.22;7365016;19;20377;-60
2023/12/08 06:55:07;;;;;;;;;;;;;;;10.64;78.85;98815.22;7354401;19;20352;-60
2023/12/08 06:57:33;;;;;;;;;;;;;;;10.64;78.65;98815.22;7361494;19;19918;-60
2023/12/08 06:59:58;;;;;;;;;;;;;;;10.64;79.14;98815.22;7365341;19;19979;-61
2023/12/08 07:02:24;;;;;;;;;;;;;;;10.66;78.65;98828.19;7364860;19;19970;-61
2023/12/08 07:04:49;;;;;;;;;;;;;;;10.67;79.00;98818.56;7362409;19;19918;-59
2023/12/08 07:07:15;;;;;;;;;;;;;;;10.67;79.18;98821.19;7363419;19;19927;-61
2023/12/08 07:09:41;;;;;;;;;;;;;;;10.68;78.71;98815.88;7359244;19;19926;-59
2023/12/08 07:12:06;;;;;;;;;;;;;;;10.70;79.09;98810.59;7369088;19;19931;-61
2023/12/08 07:14:32;;;;;;;;;;;;;;;10.71;79.06;98815.72;7377387;19;19911;-61
2023/12/08 07:16:57;;;;;;;;;;;;;;;10.72;79.01;98809.56;7376462;19;20414;-61
2023/12/08 07:19:22;;;;;;;;;;;;;;;10.73;78.63;98818.25;7378514;19;19915;-59
2023/12/08 07:21:48;;;;;;;;;;;;;;;10.75;78.74;98816.41;7375422;19;19978;-60
2023/12/08 07:24:14;;;;;;;;;;;;;;;10.76;78.87;98818.94;7377310;19;20636;-60
2023/12/08 07:26:39;;;;;;;;;;;;;;;10.77;78.93;98815.38;7375195;19;19930;-60
2023/12/08 07:29:04;;;;;;;;;;;;;;;10.80;78.73;98811.78;7377247;19;20362;-60
2023/12/08 07:31:29;;;;;;;;;;;;;;;10.82;78.84;98815.13;7372390;19;19927;-60
2023/12/08 07:33:55;;;;;;;;;;;;;;;10.81;78.44;98816.91;7379880;19;19939;-60
2023/12/08 07:36:20;;;;;;;;;;;;;;;10.83;78.72;98815.06;7375821;19;20635;-60
2023/12/08 07:38:45;;;;;;;;;;;;;;;10.84;78.75;98810.66;7377275;19;20608;-60
2023/12/08 07:41:11;;;;;;;;;;;;;;;10.81;78.63;98805.63;7376410;19;19945;-60
2023/12/08 07:43:36;;;;;;;;;;;;;;;10.86;78.45;98824.50;7373234;19;19919;-60
2023/12/08 07:46:02;;;;;;;;;;;;;;;10.86;78.54;98814.91;7376610;19;19990;-61
2023/12/08 07:48:27;;;;;;;;;;;;;;;10.86;78.12;98814.06;7371033;19;20927;-58
2023/12/08 07:50:53;;;;;;;;;;;;;;;10.87;78.12;98824.41;7372406;19;20560;-61
2023/12/08 07:53:18;;;;;;;;;;;;;;;10.87;78.15;98827.03;7376440;19;19926;-59
2023/12/08 07:55:43;;;;;;;;;;;;;;;10.89;78.48;98813.88;7373824;19;20729;-60
2023/12/08 07:58:08;;;;;;;;;;;;;;;10.89;78.38;98819.94;7376315;19;20403;-60
2023/12/08 08:00:34;;;;;;;;;;;;;;;10.90;78.30;98832.09;7366679;19;19954;-61
2023/12/08 08:02:59;;;;;;;;;;;;;;;10.91;78.10;98832.94;7361068;19;19925;-60
2023/12/08 08:05:25;;;;;;;;;;;;;;;10.92;78.48;98858.13;7371076;19;19919;-60
2023/12/08 08:07:50;;;;;;;;;;;;;;;10.94;78.42;98835.34;7371072;19;20309;-61
2023/12/08 08:10:15;;;;;;;;;;;;;;;10.96;78.42;98849.19;7381263;19;19915;-61
2023/12/08 08:12:41;;;;;;;;;;;;;;;10.96;78.08;98830.91;7383927;19;19933;-60
2023/12/08 08:15:06;;;;;;;;;;;;;;;10.98;78.23;98823.81;7381406;19;19923;-61
2023/12/08 08:17:32;;;;;;;;;;;;;;;10.98;78.38;98829.06;7376661;19;19939;-60
2023/12/08 08:19:57;;;;;;;;;;;;;;;10.99;78.17;98830.72;7375347;19;19914;-61
2023/12/08 08:22:22;;;;;;;;;;;;;;;11.01;77.83;98834.13;7375863;19;19930;-60
2023/12/08 08:24:47;;;;;;;;;;;;;;;11.03;77.85;98837.47;7368725;19;19918;-60
2023/12/08 08:27:13;;;;;;;;;;;;;;;11.05;77.25;98843.47;7361715;19;19922;-61
2023/12/08 08:29:38;;;;;;;;;;;;;;;11.05;77.47;98846.09;7364689;19;20313;-60
2023/12/08 08:32:03;;;;;;;;;;;;;;;11.06;77.36;98832.09;7366754;19;19926;-60
2023/12/08 08:34:29;;;;;;;;;;;;;;;11.07;77.64;98846.84;7372547;19;20803;-60
2023/12/08 08:36:55;;;;;;;;;;;;;;;11.09;77.53;98858.03;7366538;19;19994;-60
2023/12/08 08:39:20;;;;;;;;;;;;;;;11.10;77.48;98885.00;7364227;19;19926;-59
2023/12/08 08:41:46;;;;;;;;;;;;;;;11.13;77.23;98862.16;7365744;19;19935;-60
2023/12/08 08:44:11;;;;;;;;;;;;;;;11.14;76.89;98861.25;7361064;19;19933;-61
2023/12/08 08:46:39;;;;;;;;;;;;;;;11.17;77.06;98849.78;7362940;19;20351;-60
2023/12/08 08:49:05;;;;;;;;;;;;;;;11.17;76.83;98866.31;7366588;19;19915;-60
2023/12/08 08:51:30;;;;;;;;;;;;;;;11.18;76.83;98868.00;7365658;19;20424;-60
2023/12/08 08:53:55;;;;;;;;;;;;;;;11.20;76.90;98860.06;7336289;19;19954;-60
2023/12/08 08:56:20;;;;;;;;;;;;;;;11.20;76.77;98865.28;7367370;19;19921;-60
2023/12/08 08:58:46;;;;;;;;;;;;;;;11.21;76.80;98874.00;7365340;19;19915;-59
2023/12/08 09:01:11;;;;;;;;;;;;;;;11.22;76.15;98863.44;7365406;19;19933;-61
2023/12/08 09:03:36;;;;;;;;;;;;;;;11.23;75.91;98885.19;7365008;19;19910;-59
2023/12/08 09:06:02;;;;;;;;;;;;;;;11.22;76.02;98866.06;7363663;19;20243;-60
2023/12/08 09:08:27;;;;;;;;;;;;;;;11.18;75.62;98868.00;7367432;19;19919;-59
2023/12/08 09:10:52;;;;;;;;;;;;;;;11.16;75.79;98869.84;7366251;19;19926;-57
2023/12/08 09:13:18;;;;;;;;;;;;;;;11.10;75.52;98878.03;7366030;19;19919;-60
2023/12/08 09:15:43;;;;;;;;;;;;;;;11.07;75.93;98883.41;7364003;19;19960;-60
2023/12/08 09:18:08;;;;;;;;;;;;;;;11.03;75.96;98889.72;7369433;19;19919;-60
2023/12/08 09:20:35;;;;;;;;;;;;;;;10.99;76.00;98872.53;7362609;19;19922;-58
2023/12/08 09:23:00;;;;;;;;;;;;;;;10.94;75.69;98879.75;7364160;19;20260;-59
2023/12/08 09:25:25;;;;;;;;;;;;;;;10.88;76.07;98877.47;7363349;19;20338;-59
2023/12/08 09:27:50;;;;;;;;;;;;;;;10.82;75.93;98886.47;7362478;19;20025;-60
2023/12/08 09:30:16;;;;;;;;;;;;;;;10.76;76.36;98871.16;7359730;19;19935;-58
2023/12/08 09:32:41;;;;;;;;;;;;;;;10.71;76.33;98880.16;7365392;19;20625;-59
2023/12/08 09:35:06;;;;;;;;;;;;;;;10.68;76.26;98867.25;7373309;19;19919;-58
2023/12/08 09:37:32;;;;;;;;;;;;;;;10.62;76.93;98884.91;7360938;19;19942;-60
2023/12/08 09:39:57;;;;;;;;;;;;;;;10.58;76.69;98875.53;7358411;19;19918;-60
2023/12/08 09:42:36;;;;;;;;;;;;;;;10.57;77.15;98878.25;7362954;19;19929;-60
2023/12/08 09:45:04;;;;;;;;;;;;;;;10.56;77.10;98882.63;7363571;19;19918;-60
2023/12/08 09:47:33;;;;;;;;;;;;;;;10.55;77.21;98888.78;7363023;19;20588;-61
2023/12/08 09:49:59;;;;;;;;;;;;;;;10.54;77.67;98866.22;7362708;19;19919;-60
2023/12/08 09:52:24;;;;;;;;;;;;;;;10.55;77.87;98865.28;7355105;19;19914;-59
2023/12/08 09:54:49;;;;;;;;;;;;;;;10.56;78.00;98868.72;7362346;19;19915;-61
2023/12/08 09:57:16;;;;;;;;;;;;;;;10.56;77.64;98880.00;7361809;19;19922;-59
2023/12/08 09:59:42;;;;;;;;;;;;;;;10.57;78.15;98881.69;7363908;19;19923;-61
2023/12/08 10:02:07;;;;;;;;;;;;;;;10.59;78.29;98884.22;7356131;19;20381;-61
2023/12/08 10:04:33;;;;;;;;;;;;;;;10.60;78.29;98876.31;7362246;19;19919;-60
2023/12/08 10:07:00;;;;;;;;;;;;;;;10.64;78.09;98882.22;7358409;19;20381;-60
2023/12/08 10:09:28;;;;;;;;;;;;;;;10.67;77.95;98881.22;7358565;19;21065;-61
2023/12/08 10:11:53;;;;;;;;;;;;;;;10.70;78.25;98891.50;7362623;19;19914;-61
2023/12/08 10:14:19;;;;;;;;;;;;;;;10.73;78.33;98891.34;7358890;19;20816;-60
2023/12/08 10:16:45;;;;;;;;;;;;;;;10.76;78.32;98888.56;7334969;19;19918;-59
2023/12/08 10:19:11;;;;;;;;;;;;;;;10.79;78.23;98891.00;7351167;19;19933;-61
2023/12/08 10:21:36;;;;;;;;;;;;;;;10.82;78.08;98888.25;7357348;19;19911;-61
2023/12/08 10:24:05;;;;;;;;;;;;;;;10.84;77.87;98899.44;7359686;19;19929;-61
2023/12/08 10:26:31;;;;;;;;;;;;;;;10.87;77.74;98904.53;7357726;19;20319;-61
2023/12/08 10:28:57;;;;;;;;;;;;;;;10.90;77.56;98893.94;7359994;19;19927;-60
2023/12/08 10:31:23;;;;;;;;;;;;;;;10.92;77.63;98897.28;7361583;19;19926;-61
2023/12/08 10:33:48;;;;;;;;;;;;;;;10.93;77.58;98898.97;7360972;19;19919;-61
2023/12/08 10:36:14;;;;;;;;;;;;;;;10.96;77.76;98896.19;7361626;19;20361;-61
2023/12/08 10:38:39;;;;;;;;;;;;;;;10.98;77.55;98923.06;7342921;19;20048;-61
2023/12/08 10:41:05;;;;;;;;;;;;;;;11.01;77.44;98906.41;7357472;19;19926;-61
2023/12/08 10:43:30;;;;;;;;;;;;;;;11.04;77.07;98908.84;7361812;19;20034;-60
2023/12/08 10:45:55;;;;;;;;;;;;;;;11.04;77.06;98907.06;7363611;19;19945;-61
2023/12/08 10:48:22;;;;;;;;;;;;;;;11.05;77.32;98908.78;7355466;19;19910;-60
2023/12/08 10:50:48;;;;;;;;;;;;;;;11.06;77.37;98915.69;7356288;19;20591;-60
2023/12/08 10:53:14;;;;;;;;;;;;;;;11.08;77.47;98916.44;7363879;19;20635;-60
2023/12/08 10:55:39;;;;;;;;;;;;;;;11.09;77.45;98910.28;7357726;19;20409;-61
2023/12/08 10:58:05;;;;;;;;;;;;;;;11.06;77.29;98902.63;7360771;19;19911;-60
2023/12/08 11:00:32;;;;;;;;;;;;;;;11.14;77.32;98907.41;7360276;19;20593;-59
2023/12/08 11:02:58;;;;;;;;;;;;;;;11.16;76.82;98900.38;7361782;19;19919;-61
2023/12/08 11:05:29;;;;;;;;;;;;;;;11.18;77.00;98908.94;7358950;19;19935;-61
2023/12/08 11:07:56;;;;;;;;;;;;;;;11.20;76.83;98914.09;7356089;19;20703;-60
2023/12/08 11:10:22;;;;;;;;;;;;;;;11.21;76.98;98902.72;7359516;19;19930;-60
2023/12/08 11:12:59;;;;;;;;;;;;;;;11.22;76.79;98922.69;7359934;19;19932;-61
2023/12/08 11:15:26;;;;;;;;;;;;;;;11.24;76.28;98928.69;7353748;19;19918;-59
2023/12/08 11:17:57;;;;;;;;;;;;;;;11.24;76.19;98923.44;7365067;19;20572;-59
2023/12/08 11:20:23;;;;;;;;;;;;;;;11.23;76.47;98922.59;7354344;19;19930;-59
2023/12/08 11:22:49;;;;;;;;;;;;;;;11.24;76.44;98928.69;7364048;19;19946;-59
2023/12/08 11:25:21;;;;;;;;;;;;;;;11.24;76.10;98928.69;7366934;19;19911;-60
2023/12/08 11:27:50;;;;;;;;;;;;;;;11.23;76.15;98916.53;7366286;19;19993;-60
2023/12/08 11:30:19;;;;;;;;;;;;;;;11.23;76.49;98916.53;7361804;19;19932;-60
2023/12/08 11:33:03;;;;;;;;;;;;;;;11.22;76.34;98907.03;7359623;19;19922;-60
2023/12/08 11:35:28;;;;;;;;;;;;;;;11.21;76.05;98900.97;7362393;19;19923;-59
2023/12/08 11:37:53;;;;;;;;;;;;;;;11.19;76.16;98910.63;7355875;19;20362;-59
2023/12/08 11:40:19;;;;;;;;;;;;;;;11.17;75.76;98910.72;7359402;19;19930;-60
2023/12/08 11:42:45;;;;;;;;;;;;;;;11.16;75.66;98901.22;7359830;19;20653;-60
2023/12/08 11:45:11;;;;;;;;;;;;;;;11.13;75.82;98905.75;7356596;19;20022;-59
2023/12/08 11:47:37;;;;;;;;;;;;;;;11.10;76.29;98903.28;7348118;19;20375;-60
2023/12/08 11:50:05;;;;;;;;;;;;;;;11.08;76.25;98898.16;7359301;19;19942;-60
2023/12/08 11:52:32;;;;;;;;;;;;;;;11.08;76.58;98905.16;7351801;19;19946;-60
2023/12/08 11:55:01;;;;;;;;;;;;;;;11.08;76.85;98908.59;7357430;19;20279;-60
2023/12/08 11:57:29;;;;;;;;;;;;;;;11.14;77.33;98908.25;7357590;19;19957;-60
2023/12/08 11:59:55;;;;;;;;;;;;;;;11.20;77.32;98916.69;7363056;19;20677;-61
2023/12/08 12:02:20;;;;;;;;;;;;;;;11.28;77.26;98881.41;7368375;19;19923;-61
2023/12/08 12:04:45;;;;;;;;;;;;;;;11.35;77.07;98919.34;7364192;19;19922;-61
2023/12/08 12:07:10;;;;;;;;;;;;;;;11.41;77.03;98900.72;7364459;19;19926;-61
2023/12/08 12:09:39;;;;;;;;;;;;;;;11.43;76.92;98903.25;7364613;19;19914;-60
2023/12/08 12:12:09;;;;;;;;;;;;;;;11.47;76.62;98904.75;7366261;19;19922;-60
2023/12/08 12:14:42;;;;;;;;;;;;;;;11.50;76.90;98930.72;7366158;19;19998;-60
2023/12/08 12:17:09;;;;;;;;;;;;;;;11.50;76.87;98909.81;7361255;19;20361;-61
2023/12/08 12:19:35;;;;;;;;;;;;;;;11.53;76.63;98919.25;7365357;19;20003;-60
2023/12/08 12:22:00;;;;;;;;;;;;;;;11.54;76.66;98900.88;7368359;19;20044;-58
2023/12/08 12:24:25;;;;;;;;;;;;;;;11.56;76.53;98899.03;7367416;19;19915;-61
2023/12/08 12:26:51;;;;;;;;;;;;;;;11.57;76.74;98903.31;7365774;19;19966;-61
2023/12/08 12:29:16;;;;;;;;;;;;;;;11.59;76.36;98908.47;7367149;19;20339;-60
2023/12/08 12:31:41;;;;;;;;;;;;;;;11.60;76.35;98916.22;7366342;19;19915;-61
2023/12/08 12:34:07;;;;;;;;;;;;;;;11.61;76.04;98928.38;7367163;19;19919;-60
2023/12/08 12:36:32;;;;;;;;;;;;;;;11.61;76.09;98907.47;7364425;19;19930;-61
2023/12/08 12:38:57;;;;;;;;;;;;;;;11.60;75.98;98910.13;7364567;19;19911;-61